createdAt,value
2023-08-15T00:00:01.220Z,22.06
2023-08-15T00:02:29.036Z,22.05
2023-08-15T00:04:57.363Z,22.03
2023-08-15T00:07:25.261Z,22.02
2023-08-15T00:09:53.127Z,22.00
2023-08-15T00:12:22.480Z,21.97
2023-08-15T00:14:50.338Z,21.95
2023-08-15T00:17:18.252Z,21.95
2023-08-15T00:19:46.227Z,21.97
2023-08-15T00:22:14.128Z,21.96
2023-08-15T00:24:41.960Z,21.93
2023-08-15T00:27:09.999Z,21.83
2023-08-15T00:29:39.359Z,21.78
2023-08-15T00:32:07.339Z,21.61
2023-08-15T00:34:35.182Z,21.55
2023-08-15T00:37:03.189Z,21.55
2023-08-15T00:39:31.202Z,21.53
2023-08-15T00:41:59.052Z,21.51
2023-08-15T00:44:27.034Z,21.41
2023-08-15T00:46:56.615Z,21.40
2023-08-15T00:49:24.564Z,21.37
2023-08-15T00:51:52.512Z,21.35
2023-08-15T00:54:20.545Z,21.36
2023-08-15T00:56:48.481Z,21.37
2023-08-15T00:59:16.594Z,21.34
2023-08-15T01:01:45.102Z,21.33
2023-08-15T01:04:15.638Z,21.33
2023-08-15T01:06:43.487Z,21.29
2023-08-15T01:09:11.350Z,21.28
2023-08-15T01:11:53.179Z,21.29
2023-08-15T01:14:24.048Z,21.30
2023-08-15T01:16:54.237Z,21.29
2023-08-15T01:19:31.080Z,21.29
2023-08-15T01:22:01.413Z,21.31
2023-08-15T01:24:32.115Z,21.25
2023-08-15T01:26:59.971Z,21.23
2023-08-15T01:29:27.764Z,21.17
2023-08-15T01:32:00.617Z,21.19
2023-08-15T01:34:34.296Z,21.18
2023-08-15T01:37:09.324Z,21.19
2023-08-15T01:39:40.777Z,21.21
2023-08-15T01:42:08.959Z,21.22
2023-08-15T01:44:38.629Z,21.19
2023-08-15T01:47:06.902Z,21.16
2023-08-15T01:49:34.756Z,21.16
2023-08-15T01:52:02.653Z,21.18
2023-08-15T01:54:31.557Z,21.16
2023-08-15T01:57:00.713Z,21.16
2023-08-15T01:59:28.583Z,21.12
2023-08-15T02:01:56.392Z,21.17
2023-08-15T02:04:24.363Z,21.22
2023-08-15T02:06:52.232Z,21.19
2023-08-15T02:09:20.051Z,21.12
2023-08-15T02:11:47.903Z,21.11
2023-08-15T02:14:17.082Z,21.07
2023-08-15T02:16:44.902Z,21.04
2023-08-15T02:19:13.486Z,21.01
2023-08-15T02:21:41.305Z,20.99
2023-08-15T02:24:09.339Z,21.02
2023-08-15T02:26:37.256Z,21.07
2023-08-15T02:29:05.356Z,21.06
2023-08-15T02:31:35.744Z,21.09
2023-08-15T02:34:03.872Z,21.12
2023-08-15T02:36:31.730Z,21.12
2023-08-15T02:38:59.542Z,21.12
2023-08-15T02:41:27.384Z,21.15
2023-08-15T02:43:55.236Z,21.17
2023-08-15T02:46:23.550Z,21.20
2023-08-15T02:48:53.379Z,21.22
2023-08-15T02:51:21.255Z,21.25
2023-08-15T02:53:49.200Z,21.24
2023-08-15T02:56:17.192Z,21.24
2023-08-15T02:58:45.672Z,21.24
2023-08-15T03:01:13.979Z,21.30
2023-08-15T03:03:41.854Z,21.34
2023-08-15T03:06:11.121Z,21.33
2023-08-15T03:08:39.470Z,21.33
2023-08-15T03:11:07.625Z,21.33
2023-08-15T03:13:35.547Z,21.34
2023-08-15T03:16:03.406Z,21.34
2023-08-15T03:18:31.311Z,21.35
2023-08-15T03:20:59.762Z,21.38
2023-08-15T03:23:29.329Z,21.39
2023-08-15T03:25:58.509Z,21.44
2023-08-15T03:28:26.696Z,21.47
2023-08-15T03:30:55.012Z,21.45
2023-08-15T03:33:23.449Z,21.41
2023-08-15T03:35:53.678Z,21.41
2023-08-15T03:38:23.042Z,21.41
2023-08-15T03:41:02.756Z,21.40
2023-08-15T03:43:30.586Z,21.43
2023-08-15T03:45:58.495Z,21.40
2023-08-15T03:48:26.434Z,21.39
2023-08-15T03:50:56.086Z,21.37
2023-08-15T03:53:24.019Z,21.36
2023-08-15T03:55:54.373Z,21.33
2023-08-15T03:58:23.391Z,21.32
2023-08-15T04:00:51.944Z,21.31
2023-08-15T04:03:19.977Z,21.30
2023-08-15T04:05:48.848Z,21.33
2023-08-15T04:08:18.019Z,21.37
2023-08-15T04:10:46.881Z,21.39
2023-08-15T04:13:16.633Z,21.38
2023-08-15T04:15:44.512Z,21.39
2023-08-15T04:18:12.546Z,21.40
2023-08-15T04:20:41.327Z,21.41
2023-08-15T04:23:10.188Z,21.37
2023-08-15T04:25:40.426Z,21.38
2023-08-15T04:28:08.359Z,21.39
2023-08-15T04:30:37.664Z,21.39
2023-08-15T04:33:06.220Z,21.43
2023-08-15T04:35:34.105Z,21.45
2023-08-15T04:38:01.888Z,21.46
2023-08-15T04:40:33.875Z,21.47
2023-08-15T04:43:02.341Z,21.47
2023-08-15T04:45:30.340Z,21.42
2023-08-15T04:47:59.700Z,21.40
2023-08-15T04:50:27.640Z,21.41
2023-08-15T04:52:55.504Z,21.43
2023-08-15T04:55:23.294Z,21.43
2023-08-15T04:57:51.104Z,21.42
2023-08-15T05:00:20.460Z,21.41
2023-08-15T05:02:48.708Z,21.40
2023-08-15T05:05:18.086Z,21.44
2023-08-15T05:07:45.967Z,21.45
2023-08-15T05:10:13.818Z,21.46
2023-08-15T05:12:41.626Z,21.47
2023-08-15T05:15:10.560Z,21.49
2023-08-15T05:17:38.562Z,21.51
2023-08-15T05:20:07.309Z,21.56
2023-08-15T05:22:36.552Z,21.57
2023-08-15T05:25:04.930Z,21.58
2023-08-15T05:27:32.756Z,21.61
2023-08-15T05:30:00.813Z,21.66
2023-08-15T05:32:28.753Z,21.71
2023-08-15T05:34:56.688Z,21.75
2023-08-15T05:37:24.489Z,21.80
2023-08-15T05:39:53.853Z,21.86
2023-08-15T05:42:22.022Z,21.93
2023-08-15T05:44:49.890Z,22.00
2023-08-15T05:47:17.792Z,22.04
2023-08-15T05:49:45.611Z,22.08
2023-08-15T05:52:13.449Z,22.12
2023-08-15T05:54:41.308Z,22.14
2023-08-15T05:57:10.499Z,22.19
2023-08-15T05:59:38.372Z,22.20
2023-08-15T06:02:06.290Z,22.25
2023-08-15T06:04:34.167Z,22.27
2023-08-15T06:07:03.806Z,22.21
2023-08-15T06:09:31.811Z,22.18
2023-08-15T06:11:59.751Z,22.17
2023-08-15T06:14:28.997Z,22.18
2023-08-15T06:16:56.901Z,22.21
2023-08-15T06:19:24.834Z,22.21
2023-08-15T06:21:52.726Z,22.24
2023-08-15T06:24:20.561Z,22.30
2023-08-15T06:26:48.377Z,22.31
2023-08-15T06:29:16.230Z,22.30
2023-08-15T06:31:45.440Z,22.29
2023-08-15T06:34:13.310Z,22.31
2023-08-15T06:36:41.356Z,22.37
2023-08-15T06:39:09.343Z,22.43
2023-08-15T06:41:37.175Z,22.45
2023-08-15T06:44:05.634Z,22.46
2023-08-15T06:46:33.550Z,22.50
2023-08-15T06:49:02.722Z,22.55
2023-08-15T06:51:30.521Z,22.60
2023-08-15T06:53:58.365Z,22.68
2023-08-15T06:56:26.410Z,22.79
2023-08-15T06:58:54.269Z,22.86
2023-08-15T07:01:22.323Z,22.96
2023-08-15T07:03:50.647Z,23.02
2023-08-15T07:06:19.902Z,23.08
2023-08-15T07:08:48.321Z,23.13
2023-08-15T07:11:16.188Z,23.20
2023-08-15T07:13:44.016Z,23.30
2023-08-15T07:16:11.945Z,23.50
2023-08-15T07:18:39.832Z,23.49
2023-08-15T07:21:07.759Z,23.60
2023-08-15T07:23:37.284Z,23.65
2023-08-15T07:26:05.079Z,23.66
2023-08-15T07:28:32.909Z,23.73
2023-08-15T07:31:00.784Z,23.77
2023-08-15T07:33:28.597Z,23.80
2023-08-15T07:35:56.479Z,23.89
2023-08-15T07:38:24.711Z,23.99
2023-08-15T07:40:54.028Z,24.06
2023-08-15T07:43:21.939Z,24.20
2023-08-15T07:45:49.834Z,24.32
2023-08-15T07:48:18.108Z,24.48
2023-08-15T07:50:46.065Z,24.65
2023-08-15T07:53:13.971Z,24.80
2023-08-15T07:55:41.851Z,24.93
2023-08-15T07:58:11.044Z,25.11
2023-08-15T08:00:39.067Z,25.31
2023-08-15T08:03:09.726Z,25.51
2023-08-15T08:05:37.902Z,25.66
2023-08-15T08:08:06.210Z,25.86
2023-08-15T08:10:34.176Z,25.89
2023-08-15T08:13:02.419Z,25.98
2023-08-15T08:15:31.755Z,26.16
2023-08-15T08:17:59.715Z,26.32
2023-08-15T08:20:27.725Z,26.45
2023-08-15T08:22:55.614Z,26.62
2023-08-15T08:25:26.392Z,26.74
2023-08-15T08:27:55.507Z,26.89
2023-08-15T08:30:26.562Z,26.99
2023-08-15T08:32:56.605Z,27.02
2023-08-15T08:35:24.589Z,27.19
2023-08-15T08:37:52.866Z,27.30
2023-08-15T08:40:21.390Z,27.41
2023-08-15T08:42:49.396Z,27.63
2023-08-15T08:45:17.899Z,27.67
2023-08-15T08:47:48.080Z,27.76
2023-08-15T08:50:18.517Z,27.85
2023-08-15T08:52:50.138Z,28.13
2023-08-15T08:55:19.309Z,28.27
2023-08-15T08:57:51.841Z,28.58
2023-08-15T09:00:23.575Z,28.82
2023-08-15T09:02:53.848Z,28.86
2023-08-15T09:05:23.337Z,28.88
2023-08-15T09:07:52.208Z,29.03
2023-08-15T09:10:20.340Z,29.27
2023-08-15T09:12:48.617Z,29.21
2023-08-15T09:15:16.592Z,29.30
2023-08-15T09:17:45.311Z,29.50
2023-08-15T09:20:15.057Z,29.60
2023-08-15T09:22:46.927Z,29.62
2023-08-15T09:25:16.930Z,29.44
2023-08-15T09:27:45.049Z,29.46
2023-08-15T09:30:14.509Z,29.43
2023-08-15T09:32:43.133Z,29.42
2023-08-15T09:35:12.108Z,29.39
2023-08-15T09:37:46.461Z,29.49
2023-08-15T09:40:17.319Z,29.60
2023-08-15T09:42:46.253Z,29.68
2023-08-15T09:45:14.738Z,29.75
2023-08-15T09:47:44.122Z,29.67
2023-08-15T09:50:13.581Z,29.54
2023-08-15T09:52:43.198Z,29.45
2023-08-15T09:55:13.720Z,29.43
2023-08-15T09:57:43.395Z,29.62
2023-08-15T10:00:14.563Z,29.82
2023-08-15T10:02:45.599Z,29.96
2023-08-15T10:05:14.976Z,30.05
2023-08-15T10:07:44.095Z,29.89
2023-08-15T10:10:16.035Z,29.82
2023-08-15T10:12:44.421Z,29.67
2023-08-15T10:15:13.007Z,29.59
2023-08-15T10:17:41.208Z,29.39
2023-08-15T10:20:11.872Z,29.33
2023-08-15T10:22:41.774Z,29.25
2023-08-15T10:25:36.590Z,29.10
2023-08-15T10:28:10.904Z,29.02
2023-08-15T10:30:44.068Z,28.94
2023-08-15T10:33:21.567Z,28.91
2023-08-15T10:35:51.157Z,28.86
2023-08-15T10:38:21.050Z,28.74
2023-08-15T10:40:52.550Z,28.86
2023-08-15T10:43:20.485Z,28.82
2023-08-15T10:45:51.911Z,28.81
2023-08-15T10:48:41.103Z,28.70
2023-08-15T10:51:20.127Z,28.59
2023-08-15T10:53:50.623Z,28.55
2023-08-15T10:56:24.596Z,28.49
2023-08-15T10:58:53.038Z,28.40
2023-08-15T11:01:21.989Z,28.06
2023-08-15T11:03:51.065Z,27.73
2023-08-15T11:06:19.569Z,27.46
2023-08-15T11:08:49.367Z,27.20
2023-08-15T11:11:18.200Z,26.91
2023-08-15T11:13:48.800Z,26.74
2023-08-15T11:16:17.796Z,26.55
2023-08-15T11:18:46.668Z,26.47
2023-08-15T11:21:16.525Z,26.34
2023-08-15T11:23:46.380Z,26.36
2023-08-15T11:26:16.250Z,26.48
2023-08-15T11:28:44.674Z,26.72
2023-08-15T11:33:46.531Z,27.09
2023-08-15T11:36:14.342Z,27.24
2023-08-15T11:38:42.196Z,27.38
2023-08-15T11:41:10.149Z,27.57
2023-08-15T11:43:38.136Z,27.65
2023-08-15T11:46:07.386Z,27.83
2023-08-15T11:48:37.072Z,28.02
2023-08-15T11:51:06.780Z,28.19
2023-08-15T11:53:34.944Z,28.24
2023-08-15T11:56:02.815Z,28.38
2023-08-15T11:58:31.245Z,28.41
2023-08-15T12:01:02.805Z,28.47
2023-08-15T12:03:32.201Z,28.42
2023-08-15T12:06:03.069Z,28.36
2023-08-15T12:08:31.878Z,28.33
2023-08-15T12:11:02.408Z,28.33
2023-08-15T12:13:31.745Z,28.31
2023-08-15T12:16:00.624Z,28.30
2023-08-15T12:18:28.473Z,28.51
2023-08-15T12:20:56.442Z,28.60
2023-08-15T12:23:28.913Z,28.73
2023-08-15T12:25:57.771Z,28.78
2023-08-15T12:28:29.118Z,28.88
2023-08-15T12:30:57.613Z,29.07
2023-08-15T12:35:56.307Z,29.17
2023-08-15T12:38:25.569Z,29.19
2023-08-15T12:40:53.586Z,29.18
2023-08-15T12:43:21.492Z,29.09
2023-08-15T12:45:49.788Z,29.11
2023-08-15T12:48:17.987Z,28.94
2023-08-15T12:50:46.053Z,28.72
2023-08-15T12:53:14.120Z,28.63
2023-08-15T12:55:44.830Z,28.74
2023-08-15T12:58:12.862Z,28.81
2023-08-15T13:00:42.716Z,28.96
2023-08-15T13:03:10.890Z,29.18
2023-08-15T13:05:38.923Z,29.46
2023-08-15T13:08:07.572Z,29.66
2023-08-15T13:10:36.118Z,29.77
2023-08-15T13:13:05.619Z,29.87
2023-08-15T13:15:33.521Z,29.97
2023-08-15T13:18:01.481Z,29.91
2023-08-15T13:20:29.400Z,29.74
2023-08-15T13:22:57.291Z,29.61
2023-08-15T13:25:25.255Z,29.47
2023-08-15T13:27:53.178Z,29.40
2023-08-15T13:30:22.493Z,29.47
2023-08-15T13:32:50.607Z,29.61
2023-08-15T13:35:18.465Z,29.69
2023-08-15T13:37:46.360Z,29.71
2023-08-15T13:40:16.383Z,29.90
2023-08-15T13:42:44.454Z,29.86
2023-08-15T13:45:12.609Z,29.72
2023-08-15T13:47:41.870Z,29.64
2023-08-15T13:50:10.740Z,29.45
2023-08-15T13:52:38.635Z,29.31
2023-08-15T13:55:07.467Z,29.21
2023-08-15T13:57:35.450Z,29.00
2023-08-15T14:00:04.419Z,28.84
2023-08-15T14:02:35.367Z,28.70
2023-08-15T14:05:07.173Z,28.52
2023-08-15T14:07:35.394Z,28.26
2023-08-15T14:10:04.291Z,28.09
2023-08-15T14:12:32.171Z,28.01
2023-08-15T14:15:00.078Z,27.95
2023-08-15T14:17:27.943Z,27.83
2023-08-15T14:19:55.787Z,27.70
2023-08-15T14:22:25.154Z,27.57
2023-08-15T14:24:53.676Z,27.40
2023-08-15T14:27:21.565Z,27.30
2023-08-15T14:29:50.368Z,27.21
2023-08-15T14:32:18.452Z,27.07
2023-08-15T14:34:46.833Z,26.97
2023-08-15T14:37:14.737Z,26.94
2023-08-15T14:39:44.936Z,26.87
2023-08-15T14:42:12.739Z,26.84
2023-08-15T14:44:40.608Z,26.81
2023-08-15T14:47:08.603Z,26.72
2023-08-15T14:49:36.488Z,26.66
2023-08-15T14:52:04.918Z,26.61
2023-08-15T14:54:32.733Z,26.52
2023-08-15T14:57:01.881Z,26.42
2023-08-15T14:59:29.701Z,26.36
2023-08-15T15:01:58.990Z,26.31
2023-08-15T15:04:26.886Z,26.27
2023-08-15T15:06:54.712Z,26.19
2023-08-15T15:09:22.605Z,26.19
2023-08-15T15:11:50.556Z,26.08
2023-08-15T15:14:19.818Z,25.97
2023-08-15T15:16:48.788Z,25.96
2023-08-15T15:19:16.744Z,25.89
2023-08-15T15:21:44.608Z,25.90
2023-08-15T15:24:12.486Z,25.86
2023-08-15T15:26:40.370Z,25.84
2023-08-15T15:29:08.228Z,25.77
2023-08-15T15:31:37.494Z,25.72
2023-08-15T15:34:05.568Z,25.69
2023-08-15T15:36:33.441Z,25.63
2023-08-15T15:39:01.498Z,25.58
2023-08-15T15:41:29.354Z,25.57
2023-08-15T15:43:57.204Z,25.57
2023-08-15T15:46:26.251Z,25.51
2023-08-15T15:48:56.446Z,25.46
2023-08-15T15:51:24.341Z,25.47
2023-08-15T15:53:52.178Z,25.40
2023-08-15T15:56:20.056Z,25.32
2023-08-15T15:58:48.218Z,25.36
2023-08-15T16:01:16.080Z,25.32
2023-08-15T16:03:44.668Z,25.27
2023-08-15T16:06:13.978Z,25.31
2023-08-15T16:08:41.996Z,25.33
2023-08-15T16:11:10.733Z,25.36
2023-08-15T16:13:38.656Z,25.35
2023-08-15T16:16:06.583Z,25.32
2023-08-15T16:18:34.518Z,25.31
2023-08-15T16:21:03.143Z,25.27
2023-08-15T16:23:32.457Z,25.26
2023-08-15T16:26:00.361Z,25.24
2023-08-15T16:28:28.250Z,25.24
2023-08-15T16:30:56.185Z,25.27
2023-08-15T16:33:24.120Z,25.30
2023-08-15T16:35:52.022Z,25.28
2023-08-15T16:38:19.945Z,25.24
2023-08-15T16:40:50.268Z,25.26
2023-08-15T16:43:19.298Z,25.27
2023-08-15T16:45:47.757Z,25.27
2023-08-15T16:48:15.684Z,25.31
2023-08-15T16:50:44.243Z,25.33
2023-08-15T16:53:12.101Z,25.36
2023-08-15T16:55:39.955Z,25.41
2023-08-15T16:58:09.267Z,25.43
2023-08-15T17:00:37.446Z,25.48
2023-08-15T17:03:06.070Z,25.43
2023-08-15T17:05:34.122Z,25.44
2023-08-15T17:08:02.109Z,25.44
2023-08-15T17:10:30.406Z,25.43
2023-08-15T17:12:58.293Z,25.41
2023-08-15T17:15:27.689Z,25.35
2023-08-15T17:17:55.624Z,25.36
2023-08-15T17:20:23.624Z,25.43
2023-08-15T17:22:51.508Z,25.40
2023-08-15T17:25:19.362Z,25.38
2023-08-15T17:27:47.229Z,25.34
2023-08-15T17:30:16.880Z,25.31
2023-08-15T17:32:46.218Z,25.32
2023-08-15T17:35:14.087Z,25.29
2023-08-15T17:37:42.025Z,25.28
2023-08-15T17:40:10.709Z,25.20
2023-08-15T17:42:38.576Z,25.18
2023-08-15T17:45:07.449Z,25.19
2023-08-15T17:47:35.413Z,25.13
2023-08-15T17:50:05.707Z,25.03
2023-08-15T17:52:33.740Z,24.98
2023-08-15T17:55:02.540Z,24.95
2023-08-15T17:57:30.461Z,24.93
2023-08-15T17:59:58.486Z,24.91
2023-08-15T18:02:26.434Z,24.89
2023-08-15T18:04:54.370Z,24.89
2023-08-15T18:07:23.656Z,24.82
2023-08-15T18:09:51.501Z,24.80
2023-08-15T18:12:19.452Z,24.76
2023-08-15T18:14:47.450Z,24.72
2023-08-15T18:17:15.281Z,24.69
2023-08-15T18:19:44.901Z,24.70
2023-08-15T18:22:14.765Z,24.63
2023-08-15T18:24:44.274Z,24.60
2023-08-15T18:27:12.123Z,24.56
2023-08-15T18:29:39.986Z,24.52
2023-08-15T18:32:08.057Z,24.43
2023-08-15T18:34:35.991Z,24.40
2023-08-15T18:37:03.918Z,24.35
2023-08-15T18:39:31.728Z,24.29
2023-08-15T18:42:00.915Z,24.23
2023-08-15T18:44:29.051Z,24.19
2023-08-15T18:46:57.007Z,24.04
2023-08-15T18:49:24.845Z,24.02
2023-08-15T18:51:52.645Z,23.99
2023-08-15T18:54:20.458Z,23.90
2023-08-15T18:56:49.981Z,23.83
2023-08-15T18:59:23.995Z,23.82
2023-08-15T19:01:51.876Z,23.75
2023-08-15T19:04:19.766Z,23.67
2023-08-15T19:06:47.574Z,23.66
2023-08-15T19:09:15.409Z,23.66
2023-08-15T19:11:43.304Z,23.59
2023-08-15T19:14:12.246Z,23.52
2023-08-15T19:16:41.574Z,23.48
2023-08-15T19:19:09.454Z,23.39
2023-08-15T19:21:37.324Z,23.34
2023-08-15T19:24:06.017Z,23.29
2023-08-15T19:26:34.166Z,23.25
2023-08-15T19:29:02.085Z,23.21
2023-08-15T19:31:30.209Z,23.20
2023-08-15T19:33:59.519Z,23.19
2023-08-15T19:36:27.498Z,23.16
2023-08-15T19:38:55.676Z,23.03
2023-08-15T19:41:24.769Z,22.89
2023-08-15T19:43:57.162Z,22.84
2023-08-15T19:46:25.157Z,22.84
2023-08-15T19:48:53.109Z,22.88
2023-08-15T19:51:22.583Z,22.92
2023-08-15T19:53:50.608Z,22.92
2023-08-15T19:56:18.821Z,22.92
2023-08-15T19:58:46.890Z,22.89
2023-08-15T20:01:14.844Z,22.87
2023-08-15T20:03:42.718Z,22.84
2023-08-15T20:06:10.669Z,22.82
2023-08-15T20:08:40.042Z,22.83
2023-08-15T20:11:07.945Z,22.76
2023-08-15T20:13:35.843Z,22.68
2023-08-15T20:16:03.781Z,22.62
2023-08-15T20:18:31.638Z,22.56
2023-08-15T20:21:01.872Z,22.51
2023-08-15T20:23:29.768Z,22.47
2023-08-15T20:25:59.090Z,22.45
2023-08-15T20:28:26.931Z,22.39
2023-08-15T20:30:55.305Z,22.35
2023-08-15T20:33:23.198Z,22.21
2023-08-15T20:35:51.247Z,22.14
2023-08-15T20:38:20.287Z,22.01
2023-08-15T20:40:48.246Z,21.90
2023-08-15T20:43:17.770Z,21.84
2023-08-15T20:45:45.671Z,21.83
2023-08-15T20:48:13.541Z,21.83
2023-08-15T20:50:41.479Z,21.77
2023-08-15T20:53:10.966Z,21.76
2023-08-15T20:55:38.907Z,21.72
2023-08-15T20:58:07.452Z,21.71
2023-08-15T21:00:36.779Z,21.69
2023-08-15T21:03:04.998Z,21.54
2023-08-15T21:05:32.803Z,21.48
2023-08-15T21:08:00.651Z,21.49
2023-08-15T21:10:30.036Z,21.47
2023-08-15T21:12:58.057Z,21.41
2023-08-15T21:15:26.004Z,21.38
2023-08-15T21:17:55.700Z,21.34
2023-08-15T21:20:24.489Z,21.30
2023-08-15T21:22:52.546Z,21.28
2023-08-15T21:25:20.417Z,21.24
2023-08-15T21:27:50.680Z,21.20
2023-08-15T21:30:18.560Z,21.21
2023-08-15T21:32:46.453Z,21.17
2023-08-15T21:35:15.742Z,21.17
2023-08-15T21:37:43.586Z,21.19
2023-08-15T21:40:12.258Z,21.15
2023-08-15T21:42:40.109Z,21.11
2023-08-15T21:45:09.224Z,21.09
2023-08-15T21:47:37.223Z,21.06
2023-08-15T21:50:06.072Z,21.02
2023-08-15T21:52:35.307Z,21.01
2023-08-15T21:55:03.184Z,21.05
2023-08-15T21:57:31.052Z,21.01
2023-08-15T21:59:58.860Z,20.98
2023-08-15T22:02:26.758Z,20.95
2023-08-15T22:04:54.652Z,20.89
2023-08-15T22:07:22.717Z,20.88
2023-08-15T22:09:52.061Z,20.83
2023-08-15T22:12:19.984Z,20.81
2023-08-15T22:14:47.840Z,20.81
2023-08-15T22:17:15.822Z,20.78
2023-08-15T22:19:44.300Z,20.78
2023-08-15T22:22:12.225Z,20.85
2023-08-15T22:24:41.112Z,20.77
2023-08-15T22:27:11.855Z,20.73
2023-08-15T22:29:39.664Z,20.72
2023-08-15T22:32:07.814Z,20.68
2023-08-15T22:34:35.611Z,20.66
2023-08-15T22:37:03.661Z,20.65
2023-08-15T22:39:31.552Z,20.62
2023-08-15T22:41:59.394Z,20.64
2023-08-15T22:44:28.618Z,20.60
2023-08-15T22:46:56.461Z,20.59
2023-08-15T22:49:24.281Z,20.50
2023-08-15T22:51:52.168Z,20.46
2023-08-15T22:54:20.088Z,20.44
2023-08-15T22:56:48.215Z,20.39
2023-08-15T22:59:16.075Z,20.41
2023-08-15T23:01:45.324Z,20.43
2023-08-15T23:04:13.324Z,20.38
2023-08-15T23:06:41.249Z,20.41
2023-08-15T23:09:13.191Z,20.37
2023-08-15T23:11:41.603Z,20.35
2023-08-15T23:14:09.508Z,20.37
2023-08-15T23:16:37.390Z,20.38
2023-08-15T23:19:06.979Z,20.42
2023-08-15T23:21:34.890Z,20.37
2023-08-15T23:24:02.785Z,20.31
2023-08-15T23:26:30.665Z,20.29
2023-08-15T23:28:58.506Z,20.28
2023-08-15T23:31:33.725Z,20.28
2023-08-15T23:34:03.903Z,20.29
2023-08-15T23:36:33.689Z,20.28
2023-08-15T23:39:01.804Z,20.32
2023-08-15T23:41:30.010Z,20.30
2023-08-15T23:43:57.877Z,20.27
2023-08-15T23:46:25.913Z,20.25
2023-08-15T23:48:53.981Z,20.28
2023-08-15T23:51:21.946Z,20.29
2023-08-15T23:53:51.721Z,20.30
2023-08-15T23:56:19.756Z,20.27
2023-08-15T23:58:50.277Z,20.32
